1989 KRISY (1989087S11073)


On this page: IBTrACS data - Map and Plots - Positions - Intensities - Original source data

Summary

Start Mar 28
End Apr 11
Basin SI
LMI 105 kt
Sources jtwc_sh
reunion
td9636
neumann
In WMO? Yes
Related storms 1989086S08081
1989101S24062
1989094S05086
1989097S13069
Previous storm 1989 KRISY (SI)
Previous in basin 1989 KRISY (SI)
Concurrent storms 1989 JINABO (SI)
1989 NED (SI)
1989 KRISY (SI)
1989 KRISY (SI)
1989 KERRY (SP)
1989 AIVU (SP)
1989 LEZISSY (SI)
1989 LILI (SP)
1989 LEZISSY (SI)
1989 MISSING (SI)
Next in basin 1989 LEZISSY (SI)
Next storm 1989 KERRY (SP)

top of page IBTrACS Data: File Access

top of page HURSAT Data: File Access

Image of storm

top of page Plots:

Map of storm track will not appear if FTP is down
Time series of cyclone Maximum Sustained Wind will not appear if FTP is down
Time series of cyclone Minimum Central Pressure will not appear if FTP is down

top of page Track Data:Position

jtwc_sh reunion td9636 neumann
Date Lat Lon Lat Lon Lat Lon Lat Lon
1989-03-28 06:00:00 -11.0 73.0
1989-03-28 12:00:00 -11.1 73.1
1989-03-28 18:00:00 -11.3 73.3
1989-03-29 00:00:00 -11.6 73.7
1989-03-29 06:00:00 -11.8 73.9
1989-03-29 12:00:00 -12.1 73.7
1989-03-29 18:00:00 -11.3 73.6 -12.1 73.1 -11.3 73.6
1989-03-30 00:00:00 -11.7 73.3 -12.2 72.7 -11.7 73.3 -11.7 73.3
1989-03-30 06:00:00 -12.2 73.0 -12.5 72.4 -12.1 73.0 -12.2 73.0
1989-03-30 12:00:00 -12.3 72.7 -13.0 72.8 -12.3 72.7 -12.3 72.7
1989-03-30 18:00:00 -12.4 72.3 -13.2 73.2 -12.5 72.3 -12.4 72.3
1989-03-31 00:00:00 -12.5 71.8 -13.4 72.2 -12.5 71.8 -12.5 71.8
1989-03-31 06:00:00 -12.5 71.5 -13.1 72.1 -12.4 71.4 -12.5 71.5
1989-03-31 12:00:00 -12.4 71.1 -13.0 71.5 -12.4 71.1 -12.4 71.1
1989-03-31 18:00:00 -12.6 70.7 -13.0 70.8 -12.5 70.7 -12.6 70.7
1989-04-01 00:00:00 -12.8 70.3 -13.1 70.1 -12.8 70.3 -12.8 70.3
1989-04-01 06:00:00 -13.3 70.1 -13.8 69.8 -13.2 70.1 -13.3 70.1
1989-04-01 12:00:00 -13.7 70.0 -14.1 69.4 -13.7 70.0 -13.7 70.0
1989-04-01 18:00:00 -14.3 70.0 -14.5 69.3 -14.2 70.0 -14.3 70.0
1989-04-02 00:00:00 -14.7 70.1 -14.9 69.3 -14.7 70.1 -14.7 70.1
1989-04-02 06:00:00 -15.0 70.2 -15.1 69.6 -15.0 70.2 -15.0 70.2
1989-04-02 12:00:00 -15.3 70.3 -15.4 69.7 -15.3 70.3 -15.3 70.3
1989-04-02 18:00:00 -15.6 70.5 -15.7 69.8 -15.6 70.5 -15.6 70.5
1989-04-03 00:00:00 -16.0 70.6 -16.0 70.0 -16.0 70.6 -16.0 70.6
1989-04-03 06:00:00 -16.5 70.4 -16.3 70.0 -16.6 70.5 -16.5 70.4
jtwc_sh reunion td9636 neumann
1989-04-03 12:00:00 -17.1 70.1 -17.0 70.0 -17.1 70.1 -17.1 70.1
1989-04-03 18:00:00 -17.1 69.2 -17.1 69.8 -17.2 69.4 -17.1 69.2
1989-04-04 00:00:00 -17.2 68.4 -17.2 68.9 -17.2 68.4 -17.2 68.4
1989-04-04 06:00:00 -17.2 67.4 -17.3 68.0 -17.2 67.5 -17.2 67.4
1989-04-04 12:00:00 -17.3 66.5 -17.6 66.9 -17.3 66.5 -17.3 66.5
1989-04-04 18:00:00 -17.7 65.8 -17.9 65.9 -17.8 65.7 -17.7 65.8
1989-04-05 00:00:00 -18.3 64.8 -18.1 64.8 -18.3 64.8 -18.3 64.8
1989-04-05 06:00:00 -18.6 63.7 -18.7 63.5 -18.7 63.8 -18.6 63.7
1989-04-05 12:00:00 -19.0 62.6 -19.0 62.2 -19.0 62.6 -19.0 62.6
1989-04-05 18:00:00 -19.5 61.4 -19.3 61.2 -19.4 61.3 -19.5 61.4
1989-04-06 00:00:00 -19.8 60.0 -19.9 60.0 -19.8 60.0 -19.8 60.0
1989-04-06 06:00:00 -20.0 58.6 -20.2 58.9 -20.2 58.8 -20.0 58.6
1989-04-06 12:00:00 -20.8 57.7 -21.0 57.0 -20.8 57.7 -20.8 57.7
1989-04-06 18:00:00 -21.8 56.8 -21.9 55.9 -21.8 56.6 -21.8 56.8
1989-04-07 00:00:00 -22.8 55.5 -22.9 55.3 -22.8 55.5 -22.8 55.5
1989-04-07 06:00:00 -23.4 54.7 -23.9 55.0 -23.5 54.5 -23.4 54.7
1989-04-07 12:00:00 -24.0 53.7 -24.2 54.2 -24.0 53.7 -24.0 53.7
1989-04-07 18:00:00 -24.5 53.2 -24.9 54.0 -24.6 53.2 -24.5 53.2
1989-04-08 00:00:00 -25.3 53.1 -25.5 54.0 -25.3 53.1 -25.3 53.1
1989-04-08 06:00:00 -26.2 53.4 -26.0 54.1 -26.2 53.3 -26.2 53.4
1989-04-08 12:00:00 -27.2 53.9 -27.0 54.8 -27.2 53.9 -27.2 53.9
1989-04-08 18:00:00 -28.2 54.6 -27.7 55.3 -28.3 54.6 -28.2 54.6
1989-04-09 00:00:00 -29.0 55.7 -28.0 56.2 -29.0 55.7 -29.0 55.7
1989-04-09 06:00:00 -28.0 57.1 -28.7 57.7
jtwc_sh reunion td9636 neumann
1989-04-09 12:00:00 -28.1 58.2 -28.0 59.7
1989-04-09 18:00:00 -28.0 59.2 -27.9 60.9
1989-04-10 00:00:00 -28.0 60.6 -27.4 61.5
1989-04-10 06:00:00 -27.4 61.6 -25.8 61.7
1989-04-10 12:00:00 -26.8 62.1
1989-04-10 18:00:00 -25.0 62.0
1989-04-11 00:00:00 -24.0 62.0
1989-04-11 06:00:00 -23.0 62.1

top of pageTrack Data:Intensity

jtwc_sh reunion td9636 neumann
Date Wind Pres Wind Pres Wind Pres Wind Pres
1989-03-28 06:00:00 24. 1000.
1989-03-28 12:00:00 24. 1000.
1989-03-28 18:00:00 24. 1000.
1989-03-29 00:00:00 28. 997.
1989-03-29 06:00:00 28. 997.
1989-03-29 12:00:00 28. 997.
1989-03-29 18:00:00 35. 28. 997. 35.
1989-03-30 00:00:00 50. 28. 997. 50. 50.
1989-03-30 06:00:00 55. 36. 991. 50. 55.
1989-03-30 12:00:00 55. 44. 984. 55. 55.
1989-03-30 18:00:00 60. 44. 984. 55. 60.
1989-03-31 00:00:00 65. 52. 976. 65. 65.
1989-03-31 06:00:00 65. 52. 976. 65. 65.
1989-03-31 12:00:00 75. 52. 976. 75. 75.
1989-03-31 18:00:00 80. 52. 976. 75. 80.
1989-04-01 00:00:00 85. 52. 976. 85. 85.
1989-04-01 06:00:00 90. 52. 976. 85. 90.
1989-04-01 12:00:00 100. 52. 976. 100. 100.
1989-04-01 18:00:00 100. 62. 966. 100. 105.
1989-04-02 00:00:00 105. 72. 954. 105. 105.
1989-04-02 06:00:00 95. 72. 954. 105. 95.
1989-04-02 12:00:00 90. 72. 954. 90. 90.
1989-04-02 18:00:00 90. 72. 954. 90. 90.
1989-04-03 00:00:00 90. 82. 941. 90. 90.
1989-04-03 06:00:00 90. 82. 941. 90. 90.
jtwc_sh reunion td9636 neumann
1989-04-03 12:00:00 90. 72. 954. 90. 90.
1989-04-03 18:00:00 80. 62. 966. 90. 80.
1989-04-04 00:00:00 70. 62. 966. 70. 70.
1989-04-04 06:00:00 70. 62. 966. 70. 70.
1989-04-04 12:00:00 70. 52. 976. 70. 70.
1989-04-04 18:00:00 70. 52. 976. 70. 70.
1989-04-05 00:00:00 65. 62. 966. 65. 65.
1989-04-05 06:00:00 65. 52. 976. 65. 65.
1989-04-05 12:00:00 65. 52. 976. 65. 65.
1989-04-05 18:00:00 60. 52. 976. 65. 60.
1989-04-06 00:00:00 55. 52. 976. 55. 55.
1989-04-06 06:00:00 50. 52. 976. 55. 50.
1989-04-06 12:00:00 45. 44. 984. 45. 45.
1989-04-06 18:00:00 45. 44. 984. 45. 45.
1989-04-07 00:00:00 45. 44. 984. 45. 45.
1989-04-07 06:00:00 45. 36. 991. 45. 45.
1989-04-07 12:00:00 45. 28. 997. 45. 45.
1989-04-07 18:00:00 35. 28. 997. 45. 35.
1989-04-08 00:00:00 30. 28. 997. 30. 30.
1989-04-08 06:00:00 30. 28. 997. 30. 30.
1989-04-08 12:00:00 30. 28. 997. 30. 30.
1989-04-08 18:00:00 30. 28. 997. 30. 30.
1989-04-09 00:00:00 30. 24. 1000. 30. 30.
1989-04-09 06:00:00 24. 1000. 30.
jtwc_sh reunion td9636 neumann
1989-04-09 12:00:00 24. 1000. 25.
1989-04-09 18:00:00 24. 1000. 25.
1989-04-10 00:00:00 24. 1000. 25.
1989-04-10 06:00:00 24. 1000. 25.
1989-04-10 12:00:00 24. 1000.
1989-04-10 18:00:00 24. 1000.
1989-04-11 00:00:00 36.
1989-04-11 06:00:00 36.

top of page Links to source data

Source Source file Format
jtwc_sh bsh211989.txt ATCF
reunion WMO-Best-Tracks.txt:Line=14602:krisy WMO (old format)
td9636 cons_worldwide_trop_cyclone_18710101-19891231-005:Line=14109 TD 9636
neumann tracks.sh:Storm=861:KRISY:BSH211989:JTWC HURDAT